sensor_id;sensor_type;location;lat;lon;timestamp;temperature;humidity
5631;DHT22;2837;50.990;7.124;2022-07-18T05:00:34;18.90;99.90
5631;DHT22;2837;50.990;7.124;2022-07-18T05:03:00;18.90;99.90
5631;DHT22;2837;50.990;7.124;2022-07-18T05:05:27;18.90;99.90
5631;DHT22;2837;50.990;7.124;2022-07-18T05:07:53;18.90;99.90
5631;DHT22;2837;50.990;7.124;2022-07-18T05:10:21;19.00;99.90
5631;DHT22;2837;50.990;7.124;2022-07-18T05:12:49;19.00;99.90
5631;DHT22;2837;50.990;7.124;2022-07-18T05:15:17;19.00;99.90
5631;DHT22;2837;50.990;7.124;2022-07-18T05:17:43;19.10;99.90
5631;DHT22;2837;50.990;7.124;2022-07-18T05:20:14;19.10;99.90
5631;DHT22;2837;50.990;7.124;2022-07-18T05:22:40;19.10;99.90
5631;DHT22;2837;50.990;7.124;2022-07-18T05:25:10;19.20;99.90
5631;DHT22;2837;50.990;7.124;2022-07-18T05:27:36;19.20;99.90
5631;DHT22;2837;50.990;7.124;2022-07-18T05:30:04;19.30;99.90
5631;DHT22;2837;50.990;7.124;2022-07-18T05:32:30;19.30;99.90
5631;DHT22;2837;50.990;7.124;2022-07-18T05:34:56;19.30;99.90
5631;DHT22;2837;50.990;7.124;2022-07-18T05:37:21;19.30;99.90
5631;DHT22;2837;50.990;7.124;2022-07-18T05:39:48;19.40;99.90
5631;DHT22;2837;50.990;7.124;2022-07-18T05:42:13;19.40;99.90
5631;DHT22;2837;50.990;7.124;2022-07-18T05:44:39;19.40;99.90
5631;DHT22;2837;50.990;7.124;2022-07-18T05:47:05;19.50;99.90
5631;DHT22;2837;50.990;7.124;2022-07-18T05:49:30;19.50;99.90
5631;DHT22;2837;50.990;7.124;2022-07-18T05:51:56;19.60;99.90
5631;DHT22;2837;50.990;7.124;2022-07-18T05:54:21;19.60;99.90
5631;DHT22;2837;50.990;7.124;2022-07-18T05:56:48;19.60;99.90
5631;DHT22;2837;50.990;7.124;2022-07-18T05:59:14;19.70;99.90
5631;DHT22;2837;50.990;7.124;2022-07-18T06:01:40;19.70;99.90
5631;DHT22;2837;50.990;7.124;2022-07-18T06:04:05;19.70;99.90
5631;DHT22;2837;50.990;7.124;2022-07-18T06:06:31;19.80;99.90
5631;DHT22;2837;50.990;7.124;2022-07-18T06:08:57;19.80;99.90
5631;DHT22;2837;50.990;7.124;2022-07-18T06:11:23;19.90;99.90
5631;DHT22;2837;50.990;7.124;2022-07-18T06:13:48;19.80;99.90
5631;DHT22;2837;50.990;7.124;2022-07-18T06:16:14;19.90;99.90
5631;DHT22;2837;50.990;7.124;2022-07-18T06:18:40;19.90;99.90
5631;DHT22;2837;50.990;7.124;2022-07-18T06:21:05;19.90;99.90
5631;DHT22;2837;50.990;7.124;2022-07-18T06:23:31;19.90;99.90
5631;DHT22;2837;50.990;7.124;2022-07-18T06:25:57;19.90;99.90
5631;DHT22;2837;50.990;7.124;2022-07-18T06:28:23;19.90;99.90
5631;DHT22;2837;50.990;7.124;2022-07-18T06:30:51;19.90;99.90
5631;DHT22;2837;50.990;7.124;2022-07-18T06:33:16;20.00;99.90
5631;DHT22;2837;50.990;7.124;2022-07-18T06:35:42;20.00;99.90
5631;DHT22;2837;50.990;7.124;2022-07-18T06:38:08;19.90;99.90
5631;DHT22;2837;50.990;7.124;2022-07-18T06:40:33;20.00;99.90
5631;DHT22;2837;50.990;7.124;2022-07-18T06:42:59;20.00;99.90
5631;DHT22;2837;50.990;7.124;2022-07-18T06:45:25;20.00;99.90
5631;DHT22;2837;50.990;7.124;2022-07-18T06:47:50;20.00;99.90
5631;DHT22;2837;50.990;7.124;2022-07-18T06:50:16;20.00;99.90
5631;DHT22;2837;50.990;7.124;2022-07-18T06:52:43;20.00;99.90
5631;DHT22;2837;50.990;7.124;2022-07-18T06:55:10;20.00;99.90
5631;DHT22;2837;50.990;7.124;2022-07-18T06:57:36;20.00;99.90
5631;DHT22;2837;50.990;7.124;2022-07-18T07:00:02;20.10;99.90
5631;DHT22;2837;50.990;7.124;2022-07-18T07:02:27;20.10;99.90
5631;DHT22;2837;50.990;7.124;2022-07-18T07:04:53;20.10;99.90
5631;DHT22;2837;50.990;7.124;2022-07-18T07:07:19;20.10;99.90
5631;DHT22;2837;50.990;7.124;2022-07-18T07:09:44;20.10;99.90
5631;DHT22;2837;50.990;7.124;2022-07-18T07:12:10;20.10;99.90
5631;DHT22;2837;50.990;7.124;2022-07-18T07:14:36;20.10;99.90
5631;DHT22;2837;50.990;7.124;2022-07-18T07:17:03;20.10;99.90
5631;DHT22;2837;50.990;7.124;2022-07-18T07:19:28;20.10;99.90
5631;DHT22;2837;50.990;7.124;2022-07-18T07:21:54;20.10;99.90
5631;DHT22;2837;50.990;7.124;2022-07-18T07:24:19;20.20;99.90
5631;DHT22;2837;50.990;7.124;2022-07-18T07:26:45;20.10;99.90
5631;DHT22;2837;50.990;7.124;2022-07-18T07:29:11;20.10;99.90
5631;DHT22;2837;50.990;7.124;2022-07-18T07:31:37;20.20;99.90
5631;DHT22;2837;50.990;7.124;2022-07-18T07:34:02;20.20;99.90
5631;DHT22;2837;50.990;7.124;2022-07-18T07:36:28;20.20;99.90
5631;DHT22;2837;50.990;7.124;2022-07-18T07:38:53;20.20;99.90
5631;DHT22;2837;50.990;7.124;2022-07-18T07:41:19;20.20;99.90
5631;DHT22;2837;50.990;7.124;2022-07-18T07:43:45;20.20;99.90
5631;DHT22;2837;50.990;7.124;2022-07-18T07:46:10;20.20;99.90
5631;DHT22;2837;50.990;7.124;2022-07-18T07:48:37;20.20;99.90
5631;DHT22;2837;50.990;7.124;2022-07-18T07:51:03;20.20;99.90
5631;DHT22;2837;50.990;7.124;2022-07-18T07:53:29;20.20;99.90
5631;DHT22;2837;50.990;7.124;2022-07-18T07:55:54;20.20;99.90
5631;DHT22;2837;50.990;7.124;2022-07-18T07:58:20;20.20;99.90
5631;DHT22;2837;50.990;7.124;2022-07-18T08:00:46;20.30;99.90
5631;DHT22;2837;50.990;7.124;2022-07-18T08:03:11;20.30;99.90
5631;DHT22;2837;50.990;7.124;2022-07-18T08:05:44;20.30;99.90
5631;DHT22;2837;50.990;7.124;2022-07-18T08:08:09;20.30;99.90
5631;DHT22;2837;50.990;7.124;2022-07-18T08:10:35;20.40;99.90
5631;DHT22;2837;50.990;7.124;2022-07-18T08:13:00;20.40;99.90
5631;DHT22;2837;50.990;7.124;2022-07-18T08:15:27;20.40;99.90
5631;DHT22;2837;50.990;7.124;2022-07-18T08:17:52;20.40;99.90
5631;DHT22;2837;50.990;7.124;2022-07-18T08:20:18;20.40;99.90
5631;DHT22;2837;50.990;7.124;2022-07-18T08:25:25;20.50;99.90
5631;DHT22;2837;50.990;7.124;2022-07-18T08:27:50;20.40;99.90
5631;DHT22;2837;50.990;7.124;2022-07-18T08:30:16;20.40;99.90
5631;DHT22;2837;50.990;7.124;2022-07-18T08:32:42;20.50;99.90
5631;DHT22;2837;50.990;7.124;2022-07-18T08:35:08;20.50;99.90
5631;DHT22;2837;50.990;7.124;2022-07-18T08:37:33;20.50;99.90
5631;DHT22;2837;50.990;7.124;2022-07-18T08:39:59;20.50;99.90
5631;DHT22;2837;50.990;7.124;2022-07-18T08:42:26;20.50;99.90
5631;DHT22;2837;50.990;7.124;2022-07-18T08:44:56;20.50;99.90
5631;DHT22;2837;50.990;7.124;2022-07-18T08:47:22;20.50;99.90
5631;DHT22;2837;50.990;7.124;2022-07-18T08:49:49;20.50;99.90
5631;DHT22;2837;50.990;7.124;2022-07-18T08:52:15;20.50;99.90
5631;DHT22;2837;50.990;7.124;2022-07-18T08:54:42;20.50;99.90
5631;DHT22;2837;50.990;7.124;2022-07-18T08:57:07;20.60;99.90
5631;DHT22;2837;50.990;7.124;2022-07-18T08:59:33;20.50;99.90
5631;DHT22;2837;50.990;7.124;2022-07-18T09:01:59;20.60;99.90
5631;DHT22;2837;50.990;7.124;2022-07-18T09:04:35;20.60;99.90
5631;DHT22;2837;50.990;7.124;2022-07-18T09:07:01;20.60;99.90
5631;DHT22;2837;50.990;7.124;2022-07-18T09:09:28;20.60;99.90
5631;DHT22;2837;50.990;7.124;2022-07-18T09:12:03;20.60;99.90
5631;DHT22;2837;50.990;7.124;2022-07-18T09:14:37;20.60;99.90
5631;DHT22;2837;50.990;7.124;2022-07-18T09:20:13;20.70;99.90
5631;DHT22;2837;50.990;7.124;2022-07-18T09:22:44;20.70;99.90
5631;DHT22;2837;50.990;7.124;2022-07-18T09:25:15;20.70;99.90
5631;DHT22;2837;50.990;7.124;2022-07-18T09:27:49;20.70;99.90
5631;DHT22;2837;50.990;7.124;2022-07-18T09:30:27;20.70;99.90
5631;DHT22;2837;50.990;7.124;2022-07-18T09:35:32;20.70;99.90
5631;DHT22;2837;50.990;7.124;2022-07-18T09:40:28;20.80;99.90
5631;DHT22;2837;50.990;7.124;2022-07-18T09:42:57;20.80;99.90
5631;DHT22;2837;50.990;7.124;2022-07-18T09:45:44;20.80;99.90
5631;DHT22;2837;50.990;7.124;2022-07-18T09:48:16;20.80;99.90
5631;DHT22;2837;50.990;7.124;2022-07-18T09:53:17;20.80;99.90
5631;DHT22;2837;50.990;7.124;2022-07-18T09:58:24;20.80;99.90
5631;DHT22;2837;50.990;7.124;2022-07-18T10:00:52;20.80;99.90
5631;DHT22;2837;50.990;7.124;2022-07-18T10:03:19;20.80;99.90
5631;DHT22;2837;50.990;7.124;2022-07-18T10:05:47;20.90;99.90
5631;DHT22;2837;50.990;7.124;2022-07-18T10:08:18;20.90;99.90
5631;DHT22;2837;50.990;7.124;2022-07-18T10:10:46;20.90;99.90
5631;DHT22;2837;50.990;7.124;2022-07-18T10:13:13;20.90;99.90
5631;DHT22;2837;50.990;7.124;2022-07-18T10:15:41;20.90;99.90
5631;DHT22;2837;50.990;7.124;2022-07-18T10:18:09;20.90;99.90
5631;DHT22;2837;50.990;7.124;2022-07-18T10:20:41;21.00;99.90
5631;DHT22;2837;50.990;7.124;2022-07-18T10:23:08;21.00;99.90
5631;DHT22;2837;50.990;7.124;2022-07-18T10:25:35;21.00;99.90
5631;DHT22;2837;50.990;7.124;2022-07-18T10:28:10;21.00;99.90
5631;DHT22;2837;50.990;7.124;2022-07-18T10:30:42;21.00;99.90
5631;DHT22;2837;50.990;7.124;2022-07-18T10:33:41;21.00;99.90
5631;DHT22;2837;50.990;7.124;2022-07-18T10:36:23;21.00;99.90
5631;DHT22;2837;50.990;7.124;2022-07-18T10:39:09;21.00;99.90
5631;DHT22;2837;50.990;7.124;2022-07-18T11:02:42;21.00;99.90
5631;DHT22;2837;50.990;7.124;2022-07-18T11:18:31;21.10;99.90
5631;DHT22;2837;50.990;7.124;2022-07-18T11:20:57;21.10;99.50
5631;DHT22;2837;50.990;7.124;2022-07-18T11:23:25;21.10;99.40
5631;DHT22;2837;50.990;7.124;2022-07-18T11:25:55;21.10;98.90
5631;DHT22;2837;50.990;7.124;2022-07-18T11:28:23;21.10;96.10
5631;DHT22;2837;50.990;7.124;2022-07-18T11:31:04;21.20;94.60
5631;DHT22;2837;50.990;7.124;2022-07-18T11:33:34;21.20;97.80
5631;DHT22;2837;50.990;7.124;2022-07-18T11:36:15;21.20;99.90
5631;DHT22;2837;50.990;7.124;2022-07-18T11:38:56;21.20;99.50
5631;DHT22;2837;50.990;7.124;2022-07-18T11:41:22;21.30;99.10
5631;DHT22;2837;50.990;7.124;2022-07-18T11:43:49;21.30;97.80
5631;DHT22;2837;50.990;7.124;2022-07-18T11:46:17;21.30;99.90
5631;DHT22;2837;50.990;7.124;2022-07-18T11:48:45;21.20;99.90
5631;DHT22;2837;50.990;7.124;2022-07-18T11:51:13;21.20;99.90
5631;DHT22;2837;50.990;7.124;2022-07-18T11:53:50;21.30;99.90
5631;DHT22;2837;50.990;7.124;2022-07-18T11:56:17;21.20;99.90
5631;DHT22;2837;50.990;7.124;2022-07-18T11:58:44;21.30;99.90
5631;DHT22;2837;50.990;7.124;2022-07-18T12:01:11;21.30;98.90
5631;DHT22;2837;50.990;7.124;2022-07-18T12:03:41;21.30;99.10
5631;DHT22;2837;50.990;7.124;2022-07-18T12:06:12;21.30;99.70
5631;DHT22;2837;50.990;7.124;2022-07-18T12:08:49;21.30;99.90
5631;DHT22;2837;50.990;7.124;2022-07-18T12:11:26;21.40;99.90
5631;DHT22;2837;50.990;7.124;2022-07-18T12:19:11;21.40;98.70
5631;DHT22;2837;50.990;7.124;2022-07-18T12:27:10;21.40;86.30
5631;DHT22;2837;50.990;7.124;2022-07-18T12:30:05;21.50;81.90
5631;DHT22;2837;50.990;7.124;2022-07-18T12:32:47;21.60;77.10
5631;DHT22;2837;50.990;7.124;2022-07-18T12:35:18;21.60;82.60
5631;DHT22;2837;50.990;7.124;2022-07-18T12:40:16;21.60;82.40
5631;DHT22;2837;50.990;7.124;2022-07-18T12:42:42;21.70;85.60
5631;DHT22;2837;50.990;7.124;2022-07-18T12:45:11;21.70;97.40
5631;DHT22;2837;50.990;7.124;2022-07-18T12:47:37;21.70;99.90
5631;DHT22;2837;50.990;7.124;2022-07-18T12:50:04;21.70;99.90
5631;DHT22;2837;50.990;7.124;2022-07-18T12:52:30;21.80;99.90
5631;DHT22;2837;50.990;7.124;2022-07-18T12:54:55;21.80;95.80
5631;DHT22;2837;50.990;7.124;2022-07-18T12:57:21;21.80;94.30
5631;DHT22;2837;50.990;7.124;2022-07-18T12:59:47;21.80;95.90
5631;DHT22;2837;50.990;7.124;2022-07-18T13:02:14;21.80;92.00
5631;DHT22;2837;50.990;7.124;2022-07-18T13:04:40;21.90;83.90
5631;DHT22;2837;50.990;7.124;2022-07-18T13:07:05;21.90;89.60
5631;DHT22;2837;50.990;7.124;2022-07-18T13:09:31;21.90;87.70
5631;DHT22;2837;50.990;7.124;2022-07-18T13:11:58;21.90;90.30
5631;DHT22;2837;50.990;7.124;2022-07-18T13:14:24;21.90;78.10
5631;DHT22;2837;50.990;7.124;2022-07-18T13:16:50;22.00;70.10
5631;DHT22;2837;50.990;7.124;2022-07-18T13:19:18;22.10;68.40
5631;DHT22;2837;50.990;7.124;2022-07-18T13:21:44;22.10;67.90
5631;DHT22;2837;50.990;7.124;2022-07-18T13:24:11;22.10;68.40
5631;DHT22;2837;50.990;7.124;2022-07-18T13:26:37;22.20;68.00
5631;DHT22;2837;50.990;7.124;2022-07-18T13:29:03;22.20;66.30
5631;DHT22;2837;50.990;7.124;2022-07-18T13:31:30;22.20;70.80
5631;DHT22;2837;50.990;7.124;2022-07-18T13:33:56;22.20;73.30
5631;DHT22;2837;50.990;7.124;2022-07-18T13:36:21;22.20;77.30
5631;DHT22;2837;50.990;7.124;2022-07-18T13:38:47;22.10;79.20
5631;DHT22;2837;50.990;7.124;2022-07-18T13:41:13;22.10;72.70
5631;DHT22;2837;50.990;7.124;2022-07-18T13:43:39;22.10;78.10
5631;DHT22;2837;50.990;7.124;2022-07-18T13:46:09;22.10;76.90
5631;DHT22;2837;50.990;7.124;2022-07-18T13:48:35;22.10;72.10
5631;DHT22;2837;50.990;7.124;2022-07-18T13:51:02;22.10;75.70
5631;DHT22;2837;50.990;7.124;2022-07-18T13:53:27;22.10;72.80
5631;DHT22;2837;50.990;7.124;2022-07-18T13:55:53;22.10;73.60
5631;DHT22;2837;50.990;7.124;2022-07-18T13:58:18;22.20;70.90
5631;DHT22;2837;50.990;7.124;2022-07-18T14:00:45;22.20;71.00
5631;DHT22;2837;50.990;7.124;2022-07-18T14:03:11;22.20;70.50
5631;DHT22;2837;50.990;7.124;2022-07-18T14:05:37;22.20;78.70
5631;DHT22;2837;50.990;7.124;2022-07-18T14:08:03;22.10;79.00
5631;DHT22;2837;50.990;7.124;2022-07-18T14:10:29;22.20;82.70
5631;DHT22;2837;50.990;7.124;2022-07-18T14:12:55;22.20;84.90
5631;DHT22;2837;50.990;7.124;2022-07-18T14:15:21;22.20;90.80
5631;DHT22;2837;50.990;7.124;2022-07-18T14:17:46;22.20;92.40
5631;DHT22;2837;50.990;7.124;2022-07-18T14:20:13;22.20;93.20
5631;DHT22;2837;50.990;7.124;2022-07-18T14:22:40;22.20;91.30
5631;DHT22;2837;50.990;7.124;2022-07-18T14:25:07;22.20;96.20
5631;DHT22;2837;50.990;7.124;2022-07-18T14:27:33;22.20;95.90
5631;DHT22;2837;50.990;7.124;2022-07-18T14:29:59;22.20;93.60
5631;DHT22;2837;50.990;7.124;2022-07-18T14:32:25;22.20;93.70
5631;DHT22;2837;50.990;7.124;2022-07-18T14:34:52;22.20;94.40
5631;DHT22;2837;50.990;7.124;2022-07-18T14:37:18;22.20;91.00
5631;DHT22;2837;50.990;7.124;2022-07-18T14:39:43;22.20;81.70
5631;DHT22;2837;50.990;7.124;2022-07-18T14:42:09;22.20;79.00
5631;DHT22;2837;50.990;7.124;2022-07-18T14:44:35;22.20;81.10
5631;DHT22;2837;50.990;7.124;2022-07-18T14:47:01;22.20;85.00
5631;DHT22;2837;50.990;7.124;2022-07-18T14:49:27;22.20;83.60
5631;DHT22;2837;50.990;7.124;2022-07-18T14:51:52;22.20;81.70
5631;DHT22;2837;50.990;7.124;2022-07-18T14:54:18;22.30;80.20
5631;DHT22;2837;50.990;7.124;2022-07-18T14:56:43;22.30;78.10
5631;DHT22;2837;50.990;7.124;2022-07-18T14:59:09;22.30;80.00
5631;DHT22;2837;50.990;7.124;2022-07-18T15:01:34;22.30;74.60
5631;DHT22;2837;50.990;7.124;2022-07-18T15:04:00;22.40;74.00
5631;DHT22;2837;50.990;7.124;2022-07-18T15:06:26;22.50;73.70
5631;DHT22;2837;50.990;7.124;2022-07-18T15:08:52;22.50;69.00
5631;DHT22;2837;50.990;7.124;2022-07-18T15:11:17;22.50;74.70
5631;DHT22;2837;50.990;7.124;2022-07-18T15:13:47;22.50;77.60
5631;DHT22;2837;50.990;7.124;2022-07-18T15:16:13;22.50;78.20
5631;DHT22;2837;50.990;7.124;2022-07-18T15:18:39;22.50;81.00
5631;DHT22;2837;50.990;7.124;2022-07-18T15:21:04;22.40;81.50
5631;DHT22;2837;50.990;7.124;2022-07-18T15:23:30;22.40;83.00
5631;DHT22;2837;50.990;7.124;2022-07-18T15:25:56;22.40;83.30
5631;DHT22;2837;50.990;7.124;2022-07-18T15:28:21;22.40;80.40
5631;DHT22;2837;50.990;7.124;2022-07-18T15:30:48;22.50;79.70
5631;DHT22;2837;50.990;7.124;2022-07-18T15:33:15;22.50;86.50
5631;DHT22;2837;50.990;7.124;2022-07-18T15:35:41;22.50;89.00
5631;DHT22;2837;50.990;7.124;2022-07-18T15:38:07;22.50;86.20
5631;DHT22;2837;50.990;7.124;2022-07-18T15:40:32;22.50;87.10
5631;DHT22;2837;50.990;7.124;2022-07-18T15:42:58;22.50;87.70
5631;DHT22;2837;50.990;7.124;2022-07-18T15:45:24;22.50;91.10
5631;DHT22;2837;50.990;7.124;2022-07-18T15:47:49;22.50;91.40
5631;DHT22;2837;50.990;7.124;2022-07-18T15:50:15;22.50;85.90
5631;DHT22;2837;50.990;7.124;2022-07-18T15:52:41;22.50;86.10
5631;DHT22;2837;50.990;7.124;2022-07-18T15:55:07;22.60;80.60
5631;DHT22;2837;50.990;7.124;2022-07-18T15:57:33;22.50;81.10
5631;DHT22;2837;50.990;7.124;2022-07-18T15:59:59;22.50;79.90
5631;DHT22;2837;50.990;7.124;2022-07-18T16:02:24;22.60;79.50
5631;DHT22;2837;50.990;7.124;2022-07-18T16:04:50;22.60;82.50
5631;DHT22;2837;50.990;7.124;2022-07-18T16:07:16;22.60;85.20
5631;DHT22;2837;50.990;7.124;2022-07-18T16:09:41;22.60;85.00
5631;DHT22;2837;50.990;7.124;2022-07-18T16:12:07;22.60;80.10
5631;DHT22;2837;50.990;7.124;2022-07-18T16:14:33;22.60;81.60
5631;DHT22;2837;50.990;7.124;2022-07-18T16:16:59;22.60;84.20
5631;DHT22;2837;50.990;7.124;2022-07-18T16:19:25;22.60;81.30
5631;DHT22;2837;50.990;7.124;2022-07-18T16:21:50;22.70;77.20
5631;DHT22;2837;50.990;7.124;2022-07-18T16:24:16;22.70;77.50
5631;DHT22;2837;50.990;7.124;2022-07-18T16:26:42;22.70;75.60
5631;DHT22;2837;50.990;7.124;2022-07-18T16:29:07;22.80;72.70
5631;DHT22;2837;50.990;7.124;2022-07-18T16:31:33;22.80;72.00
5631;DHT22;2837;50.990;7.124;2022-07-18T16:33:59;22.90;68.30
5631;DHT22;2837;50.990;7.124;2022-07-18T16:36:25;22.90;68.50
5631;DHT22;2837;50.990;7.124;2022-07-18T16:38:51;22.90;70.60
5631;DHT22;2837;50.990;7.124;2022-07-18T16:41:17;23.00;68.30
5631;DHT22;2837;50.990;7.124;2022-07-18T16:43:42;23.00;68.90
5631;DHT22;2837;50.990;7.124;2022-07-18T16:46:09;23.00;69.70
5631;DHT22;2837;50.990;7.124;2022-07-18T16:48:35;23.00;69.50
5631;DHT22;2837;50.990;7.124;2022-07-18T16:51:00;23.00;72.60
5631;DHT22;2837;50.990;7.124;2022-07-18T16:53:27;23.00;73.30
5631;DHT22;2837;50.990;7.124;2022-07-18T16:55:53;23.00;69.30
5631;DHT22;2837;50.990;7.124;2022-07-18T16:58:19;23.00;71.40
5631;DHT22;2837;50.990;7.124;2022-07-18T17:00:44;23.00;72.60
5631;DHT22;2837;50.990;7.124;2022-07-18T17:03:10;23.00;75.80
5631;DHT22;2837;50.990;7.124;2022-07-18T17:05:36;23.00;76.10
5631;DHT22;2837;50.990;7.124;2022-07-18T17:08:02;23.00;76.40
5631;DHT22;2837;50.990;7.124;2022-07-18T17:10:28;23.00;75.40
5631;DHT22;2837;50.990;7.124;2022-07-18T17:12:54;23.00;72.50
5631;DHT22;2837;50.990;7.124;2022-07-18T17:15:20;23.00;73.50
5631;DHT22;2837;50.990;7.124;2022-07-18T17:17:46;23.00;72.40
5631;DHT22;2837;50.990;7.124;2022-07-18T17:20:13;23.00;74.50
5631;DHT22;2837;50.990;7.124;2022-07-18T17:22:40;23.00;74.70
5631;DHT22;2837;50.990;7.124;2022-07-18T17:25:06;23.00;75.30
5631;DHT22;2837;50.990;7.124;2022-07-18T17:27:33;23.00;76.40
5631;DHT22;2837;50.990;7.124;2022-07-18T17:29:59;23.00;78.50
5631;DHT22;2837;50.990;7.124;2022-07-18T17:32:25;23.00;79.90
5631;DHT22;2837;50.990;7.124;2022-07-18T17:34:52;23.00;78.60
5631;DHT22;2837;50.990;7.124;2022-07-18T17:37:19;23.00;76.40
5631;DHT22;2837;50.990;7.124;2022-07-18T17:39:47;23.00;79.20
5631;DHT22;2837;50.990;7.124;2022-07-18T17:42:16;23.00;80.90
5631;DHT22;2837;50.990;7.124;2022-07-18T17:44:43;22.90;80.90
5631;DHT22;2837;50.990;7.124;2022-07-18T17:47:09;22.90;81.40
5631;DHT22;2837;50.990;7.124;2022-07-18T17:49:35;22.90;82.50
5631;DHT22;2837;50.990;7.124;2022-07-18T17:52:01;22.90;83.00
5631;DHT22;2837;50.990;7.124;2022-07-18T17:54:27;22.90;83.00
5631;DHT22;2837;50.990;7.124;2022-07-18T17:56:53;22.90;79.20
5631;DHT22;2837;50.990;7.124;2022-07-18T17:59:19;22.90;81.10
5631;DHT22;2837;50.990;7.124;2022-07-18T18:01:44;22.90;78.50
5631;DHT22;2837;50.990;7.124;2022-07-18T18:04:10;22.90;79.30
5631;DHT22;2837;50.990;7.124;2022-07-18T18:06:35;22.90;80.70
5631;DHT22;2837;50.990;7.124;2022-07-18T18:09:02;22.90;80.90
5631;DHT22;2837;50.990;7.124;2022-07-18T18:11:28;22.90;82.50
5631;DHT22;2837;50.990;7.124;2022-07-18T18:13:54;22.90;82.80
5631;DHT22;2837;50.990;7.124;2022-07-18T18:16:20;22.90;83.00
5631;DHT22;2837;50.990;7.124;2022-07-18T18:18:46;22.80;84.90
5631;DHT22;2837;50.990;7.124;2022-07-18T18:21:11;22.80;86.10
5631;DHT22;2837;50.990;7.124;2022-07-18T18:23:37;22.80;88.80
5631;DHT22;2837;50.990;7.124;2022-07-18T18:26:02;22.80;90.80
5631;DHT22;2837;50.990;7.124;2022-07-18T18:28:29;22.80;92.90
5631;DHT22;2837;50.990;7.124;2022-07-18T18:30:55;22.80;95.50
5631;DHT22;2837;50.990;7.124;2022-07-18T18:33:21;22.70;99.00
5631;DHT22;2837;50.990;7.124;2022-07-18T18:35:46;22.70;99.90
5631;DHT22;2837;50.990;7.124;2022-07-18T18:38:12;22.70;99.90
5631;DHT22;2837;50.990;7.124;2022-07-18T18:40:38;22.70;99.90
5631;DHT22;2837;50.990;7.124;2022-07-18T18:43:04;22.70;99.90
5631;DHT22;2837;50.990;7.124;2022-07-18T18:45:29;22.60;99.90
5631;DHT22;2837;50.990;7.124;2022-07-18T18:47:55;22.60;99.90
5631;DHT22;2837;50.990;7.124;2022-07-18T18:50:21;22.60;99.90
5631;DHT22;2837;50.990;7.124;2022-07-18T18:52:46;22.60;99.90
5631;DHT22;2837;50.990;7.124;2022-07-18T18:55:12;22.60;99.90
5631;DHT22;2837;50.990;7.124;2022-07-18T18:57:43;22.50;99.90
5631;DHT22;2837;50.990;7.124;2022-07-18T19:00:10;22.50;99.90
5631;DHT22;2837;50.990;7.124;2022-07-18T19:02:45;22.50;99.90
5631;DHT22;2837;50.990;7.124;2022-07-18T19:05:12;22.50;99.90
5631;DHT22;2837;50.990;7.124;2022-07-18T19:07:38;22.50;99.90
5631;DHT22;2837;50.990;7.124;2022-07-18T19:10:03;22.40;99.90
5631;DHT22;2837;50.990;7.124;2022-07-18T19:12:29;22.40;99.90
5631;DHT22;2837;50.990;7.124;2022-07-18T19:14:55;22.40;99.90
5631;DHT22;2837;50.990;7.124;2022-07-18T19:17:21;22.40;99.90
5631;DHT22;2837;50.990;7.124;2022-07-18T19:19:46;22.30;99.90
5631;DHT22;2837;50.990;7.124;2022-07-18T19:22:12;22.30;99.90
5631;DHT22;2837;50.990;7.124;2022-07-18T19:24:38;22.30;99.90
5631;DHT22;2837;50.990;7.124;2022-07-18T19:27:04;22.30;99.90
5631;DHT22;2837;50.990;7.124;2022-07-18T19:29:29;22.30;99.90
5631;DHT22;2837;50.990;7.124;2022-07-18T19:31:55;22.30;99.90
5631;DHT22;2837;50.990;7.124;2022-07-18T19:34:20;22.30;99.90
5631;DHT22;2837;50.990;7.124;2022-07-18T19:36:46;22.20;99.90
5631;DHT22;2837;50.990;7.124;2022-07-18T19:39:12;22.20;99.90
5631;DHT22;2837;50.990;7.124;2022-07-18T19:41:38;22.20;99.90
5631;DHT22;2837;50.990;7.124;2022-07-18T19:44:05;22.20;99.90
5631;DHT22;2837;50.990;7.124;2022-07-18T19:46:31;22.20;99.90
5631;DHT22;2837;50.990;7.124;2022-07-18T19:48:56;22.20;99.90
5631;DHT22;2837;50.990;7.124;2022-07-18T19:51:22;22.20;99.90
5631;DHT22;2837;50.990;7.124;2022-07-18T19:53:47;22.10;99.90
5631;DHT22;2837;50.990;7.124;2022-07-18T19:56:13;22.10;99.90
5631;DHT22;2837;50.990;7.124;2022-07-18T19:58:39;22.10;99.90
5631;DHT22;2837;50.990;7.124;2022-07-18T20:01:04;22.10;99.90
5631;DHT22;2837;50.990;7.124;2022-07-18T20:03:30;22.00;99.90
5631;DHT22;2837;50.990;7.124;2022-07-18T20:05:55;22.00;99.90
5631;DHT22;2837;50.990;7.124;2022-07-18T20:08:21;22.00;99.90
5631;DHT22;2837;50.990;7.124;2022-07-18T20:10:46;22.10;99.90
5631;DHT22;2837;50.990;7.124;2022-07-18T20:13:12;22.00;99.90
5631;DHT22;2837;50.990;7.124;2022-07-18T20:15:38;22.00;99.90
5631;DHT22;2837;50.990;7.124;2022-07-18T20:18:04;22.00;99.90
5631;DHT22;2837;50.990;7.124;2022-07-18T20:20:31;22.00;99.90
5631;DHT22;2837;50.990;7.124;2022-07-18T20:22:57;21.90;99.90
5631;DHT22;2837;50.990;7.124;2022-07-18T20:25:24;21.90;99.90
5631;DHT22;2837;50.990;7.124;2022-07-18T20:27:49;21.90;99.90
5631;DHT22;2837;50.990;7.124;2022-07-18T20:30:16;21.90;99.90
5631;DHT22;2837;50.990;7.124;2022-07-18T20:32:42;21.90;99.90
5631;DHT22;2837;50.990;7.124;2022-07-18T20:35:09;21.90;99.90
5631;DHT22;2837;50.990;7.124;2022-07-18T20:37:35;21.90;99.90
5631;DHT22;2837;50.990;7.124;2022-07-18T20:40:01;21.80;99.90
5631;DHT22;2837;50.990;7.124;2022-07-18T20:42:27;21.80;99.90
5631;DHT22;2837;50.990;7.124;2022-07-18T20:44:52;21.80;99.90
5631;DHT22;2837;50.990;7.124;2022-07-18T20:47:18;21.80;99.90
5631;DHT22;2837;50.990;7.124;2022-07-18T20:49:44;21.80;99.90
5631;DHT22;2837;50.990;7.124;2022-07-18T20:52:09;21.80;99.90
5631;DHT22;2837;50.990;7.124;2022-07-18T20:54:35;21.80;99.90
5631;DHT22;2837;50.990;7.124;2022-07-18T20:57:01;21.70;99.90
5631;DHT22;2837;50.990;7.124;2022-07-18T20:59:26;21.70;99.90
